This is the latest recevied weather packets stored in our database for station/object OK1TOM-6. If no packets are shown the sender has not sent any weather packets the latest 1 day(s).
| Time | Temp. | Humidity | Pressure | Rain* | Wind** | Luminosity | Snow |
|---|---|---|---|---|---|---|---|
| 1778100963 | 11.11° C | 93% | 1009.9 hPa | 0.25 mm | - | - | - |
| 1778097946 | 11.11° C | 96% | 1008.8 hPa | 1.52 mm | - | - | - |
| 1778096739 | 11.67° C | 94% | 1008.9 hPa | 1.52 mm | - | - | - |
| 1778095532 | 11.67° C | 90% | 1008.9 hPa | 1.27 mm | - | - | - |
| 1778094325 | 12.22° C | 90% | 1008.7 hPa | 0.51 mm | - | - | - |
| 1778092575 | 13.33° C | 82% | 1008.4 hPa | 0 mm | - | - | - |
| 1778091368 | 13.33° C | 81% | 1007.9 hPa | 0 mm | - | - | - |
| 1778089558 | 13.89° C | 77% | 1007.7 hPa | 0 mm | - | - | - |
| 1778086541 | 15.56° C | 69% | 1007.6 hPa | 0 mm | - | - | - |
| 1778085334 | 15.56° C | 68% | 1007.7 hPa | 0 mm | - | - | - |
| 1778082920 | 16.67° C | 64% | 1007.8 hPa | 0 mm | - | - | - |
| 1778079963 | 16.67° C | 64% | 1008.3 hPa | 0 mm | - | - | - |
| 1778078756 | 16.67° C | 63% | 1008.3 hPa | 0 mm | - | - | - |
| 1778076946 | 16.67° C | 62% | 1008.4 hPa | 0 mm | - | - | - |
| 1778075739 | 17.22° C | 58% | 1008.5 hPa | 0 mm | - | - | - |
| 1778074532 | 16.67° C | 60% | 1008.5 hPa | 0 mm | - | - | - |
| 1778073325 | 16.67° C | 61% | 1008.8 hPa | 0 mm | - | - | - |
| 1778072722 | 16.67° C | 61% | 1008.8 hPa | 0 mm | - | - | - |
| 1778070972 | 16.67° C | 60% | 1009 hPa | 0 mm | - | - | - |
| 1778067955 | 16.11° C | 63% | 1009.2 hPa | 0 mm | - | - | - |
| 1778066748 | 16.11° C | 64% | 1009.4 hPa | 0 mm | - | - | - |
| 1778064334 | 15° C | 69% | 1009.5 hPa | 0 mm | - | - | - |
| 1778063127 | 15.56° C | 65% | 1009.4 hPa | 0 mm | - | - | - |
| 1778061316 | 14.44° C | 74% | 1009.5 hPa | 0 mm | - | - | - |
| 1778060773 | 14.44° C | 74% | 1009.5 hPa | 0 mm | - | - | - |
* Rain latest hour (hover to see other rain measurements)
** Current wind speed in m/s (hover to see current wind gust speed)